createdAt,value
2019-02-15T00:00:37.790Z,7.50
2019-02-15T00:10:59.795Z,7.40
2019-02-15T00:16:14.205Z,7.40
2019-02-15T00:21:36.905Z,7.30
2019-02-15T00:26:51.633Z,7.30
2019-02-15T00:32:05.937Z,7.20
2019-02-15T00:37:21.237Z,7.20
2019-02-15T00:42:35.771Z,7.10
2019-02-15T00:48:10.303Z,7.10
2019-02-15T00:53:41.886Z,7.00
2019-02-15T00:59:04.704Z,7.00
2019-02-15T01:04:55.066Z,6.90
2019-02-15T01:10:41.199Z,6.90
2019-02-15T01:15:55.611Z,6.80
2019-02-15T01:21:09.972Z,6.80
2019-02-15T01:26:40.987Z,6.70
2019-02-15T01:32:17.629Z,6.70
2019-02-15T01:37:51.005Z,6.60
2019-02-15T01:43:27.021Z,6.60
2019-02-15T01:48:41.317Z,6.50
2019-02-15T01:53:56.232Z,6.50
2019-02-15T01:59:10.880Z,6.40
2019-02-15T02:04:25.810Z,6.40
2019-02-15T02:09:40.405Z,6.30
2019-02-15T02:14:55.054Z,6.30
2019-02-15T02:20:10.759Z,6.20
2019-02-15T02:25:25.827Z,6.20
2019-02-15T02:30:40.607Z,6.10
2019-02-15T02:36:00.337Z,6.10
2019-02-15T02:41:15.015Z,6.00
2019-02-15T02:46:29.498Z,6.00
2019-02-15T02:51:45.442Z,5.90
2019-02-15T02:57:00.094Z,5.90
2019-02-15T03:02:14.312Z,5.80
2019-02-15T03:07:29.037Z,5.80
2019-02-15T03:12:43.476Z,5.80
2019-02-15T03:17:58.025Z,5.70
2019-02-15T03:23:12.648Z,5.70
2019-02-15T03:28:27.026Z,5.60
2019-02-15T03:33:41.602Z,5.60
2019-02-15T03:39:05.398Z,5.50
2019-02-15T03:44:22.447Z,5.50
2019-02-15T03:49:36.162Z,5.40
2019-02-15T03:54:50.470Z,5.40
2019-02-15T04:00:05.345Z,5.30
2019-02-15T04:05:19.687Z,5.30
2019-02-15T04:10:34.050Z,5.30
2019-02-15T04:15:48.855Z,5.20
2019-02-15T04:21:03.664Z,5.20
2019-02-15T04:26:18.253Z,5.10
2019-02-15T04:31:34.961Z,5.10
2019-02-15T04:36:49.238Z,5.10
2019-02-15T04:42:03.735Z,5.00
2019-02-15T04:47:18.277Z,5.00
2019-02-15T04:52:32.808Z,4.90
2019-02-15T04:57:48.622Z,4.90
2019-02-15T05:03:03.255Z,4.90
2019-02-15T05:08:17.901Z,4.80
2019-02-15T05:13:32.505Z,4.80
2019-02-15T05:18:46.992Z,4.80
2019-02-15T05:24:01.638Z,4.70
2019-02-15T05:29:16.202Z,4.70
2019-02-15T05:34:31.051Z,4.70
2019-02-15T05:39:45.095Z,4.60
2019-02-15T05:45:03.747Z,4.60
2019-02-15T05:50:15.651Z,4.60
2019-02-15T05:55:30.059Z,4.50
2019-02-15T06:00:44.120Z,4.50
2019-02-15T06:05:59.219Z,4.40
2019-02-15T06:11:13.866Z,4.40
2019-02-15T06:16:29.913Z,4.40
2019-02-15T06:21:44.438Z,4.40
2019-02-15T06:27:07.151Z,4.30
2019-02-15T06:32:21.567Z,4.30
2019-02-15T06:37:35.671Z,4.30
2019-02-15T06:42:49.836Z,4.20
2019-02-15T06:48:04.274Z,4.20
2019-02-15T06:53:18.899Z,4.20
2019-02-15T06:58:33.321Z,4.10
2019-02-15T07:04:10.081Z,4.10
2019-02-15T07:09:25.613Z,4.00
2019-02-15T07:14:40.282Z,4.00
2019-02-15T07:19:54.699Z,4.00
2019-02-15T07:25:10.314Z,4.00
2019-02-15T07:30:26.383Z,3.90
2019-02-15T07:35:41.134Z,3.90
2019-02-15T07:40:55.044Z,3.90
2019-02-15T07:46:09.353Z,3.90
2019-02-15T07:51:23.980Z,3.90
2019-02-15T07:56:38.867Z,3.90
2019-02-15T08:02:01.315Z,3.80
2019-02-15T08:07:09.435Z,3.80
2019-02-15T08:12:24.458Z,3.80
2019-02-15T08:17:39.083Z,3.80
2019-02-15T08:22:53.310Z,3.90
2019-02-15T08:28:08.142Z,4.10
2019-02-15T08:33:23.080Z,4.30
2019-02-15T08:38:37.471Z,4.50
2019-02-15T08:43:51.769Z,4.70
2019-02-15T08:49:09.366Z,4.90
2019-02-15T08:54:23.593Z,5.10
2019-02-15T08:59:38.134Z,5.30
2019-02-15T09:04:52.336Z,5.40
2019-02-15T09:10:09.276Z,5.60
2019-02-15T09:15:23.645Z,5.80
2019-02-15T09:20:38.171Z,5.90
2019-02-15T09:25:53.820Z,6.10
2019-02-15T09:31:08.375Z,6.30
2019-02-15T09:36:23.142Z,6.50
2019-02-15T09:41:37.785Z,6.70
2019-02-15T09:46:54.450Z,6.90
2019-02-15T09:52:08.953Z,7.00
2019-02-15T09:57:23.604Z,7.20
2019-02-15T10:02:38.182Z,7.40
2019-02-15T10:07:52.795Z,7.60
2019-02-15T10:13:07.688Z,7.90
2019-02-15T10:18:22.440Z,8.10
2019-02-15T10:23:37.061Z,8.40
2019-02-15T10:28:51.588Z,8.70
2019-02-15T10:34:05.699Z,9.00
2019-02-15T10:39:20.075Z,9.30
2019-02-15T10:44:34.511Z,9.60
2019-02-15T10:49:49.422Z,9.90
2019-02-15T10:55:04.091Z,10.30
2019-02-15T11:00:19.439Z,10.60
2019-02-15T11:05:33.692Z,11.00
2019-02-15T11:10:48.391Z,11.30
2019-02-15T11:16:03.153Z,11.70
2019-02-15T11:21:17.869Z,12.00
2019-02-15T11:26:34.132Z,12.40
2019-02-15T11:31:49.679Z,12.70
2019-02-15T11:37:04.526Z,13.10
2019-02-15T11:42:19.060Z,13.50
2019-02-15T11:47:33.803Z,13.80
2019-02-15T11:52:48.341Z,14.30
2019-02-15T11:58:03.406Z,14.60
2019-02-15T12:03:17.477Z,15.10
2019-02-15T12:08:31.863Z,15.50
2019-02-15T12:13:46.683Z,15.90
2019-02-15T12:19:02.153Z,16.40
2019-02-15T12:24:16.017Z,16.70
2019-02-15T12:29:30.564Z,16.70
2019-02-15T12:34:45.386Z,16.30
2019-02-15T12:40:00.007Z,16.00
2019-02-15T12:45:14.443Z,15.80
2019-02-15T12:50:29.143Z,15.60
2019-02-15T12:55:43.591Z,15.70
2019-02-15T13:00:57.951Z,17.50
2019-02-15T13:06:12.295Z,20.30
2019-02-15T13:11:26.975Z,22.90
2019-02-15T13:16:41.608Z,25.00
2019-02-15T13:21:56.127Z,26.90
2019-02-15T13:27:10.589Z,28.30
2019-02-15T13:32:25.390Z,29.60
2019-02-15T13:37:39.730Z,30.20
2019-02-15T13:42:54.191Z,30.90
2019-02-15T13:48:08.843Z,31.10
2019-02-15T13:53:26.255Z,31.70
2019-02-15T13:58:40.666Z,32.10
2019-02-15T14:03:55.066Z,32.20
2019-02-15T14:09:09.906Z,32.70
2019-02-15T14:14:24.510Z,32.70
2019-02-15T14:19:39.085Z,32.60
2019-02-15T14:24:53.674Z,32.70
2019-02-15T14:30:09.315Z,32.60
2019-02-15T14:35:23.791Z,32.60
2019-02-15T14:40:38.655Z,32.40
2019-02-15T14:45:53.154Z,31.40
2019-02-15T14:51:08.855Z,30.20
2019-02-15T15:01:30.478Z,29.00
2019-02-15T15:06:44.876Z,28.00
2019-02-15T15:11:59.515Z,27.00
2019-02-15T15:17:14.517Z,25.90
2019-02-15T15:22:29.199Z,24.90
2019-02-15T15:27:44.633Z,23.60
2019-02-15T15:32:59.142Z,22.40
2019-02-15T15:38:13.601Z,21.10
2019-02-15T15:43:28.391Z,20.30
2019-02-15T15:48:43.064Z,19.50
2019-02-15T15:53:58.022Z,18.90
2019-02-15T15:59:12.704Z,18.40
2019-02-15T16:04:28.364Z,17.90
2019-02-15T16:09:42.808Z,17.40
2019-02-15T16:14:57.222Z,17.00
2019-02-15T16:20:12.974Z,16.70
2019-02-15T16:25:34.997Z,16.30
2019-02-15T16:30:49.512Z,16.00
2019-02-15T16:36:05.362Z,15.70
2019-02-15T16:41:23.715Z,15.40
2019-02-15T16:46:38.441Z,15.20
2019-02-15T16:51:53.023Z,14.90
2019-02-15T16:57:07.472Z,14.70
2019-02-15T17:02:22.009Z,14.50
2019-02-15T17:07:36.518Z,14.30
2019-02-15T17:12:52.706Z,14.10
2019-02-15T17:18:07.359Z,14.00
2019-02-15T17:23:22.560Z,13.80
2019-02-15T17:28:37.374Z,13.70
2019-02-15T17:33:52.070Z,13.50
2019-02-15T17:39:07.360Z,13.40
2019-02-15T17:44:22.605Z,13.20
2019-02-15T17:49:37.287Z,13.00
2019-02-15T17:54:53.052Z,12.80
2019-02-15T18:00:08.567Z,12.60
2019-02-15T18:05:24.415Z,12.40
2019-02-15T18:11:12.174Z,12.10
2019-02-15T18:16:27.161Z,11.90
2019-02-15T18:27:02.096Z,12.80
2019-02-15T18:32:16.776Z,13.40
2019-02-15T18:37:31.508Z,14.00
2019-02-15T18:42:46.468Z,14.40
2019-02-15T18:48:03.165Z,14.80
2019-02-15T18:53:17.895Z,15.20
2019-02-15T18:58:32.543Z,15.50
2019-02-15T19:03:47.076Z,15.60
2019-02-15T19:09:02.243Z,15.80
2019-02-15T19:14:18.205Z,15.90
2019-02-15T19:19:32.834Z,16.00
2019-02-15T19:24:47.339Z,16.10
2019-02-15T19:30:01.990Z,16.10
2019-02-15T19:35:16.781Z,16.10
2019-02-15T19:40:31.696Z,16.10
2019-02-15T19:45:46.392Z,16.10
2019-02-15T19:51:00.801Z,16.10
2019-02-15T19:56:15.583Z,16.00
2019-02-15T20:01:30.268Z,16.00
2019-02-15T20:06:44.674Z,15.90
2019-02-15T20:11:59.140Z,15.90
2019-02-15T20:17:13.701Z,15.80
2019-02-15T20:22:28.340Z,15.70
2019-02-15T20:27:42.710Z,15.70
2019-02-15T20:32:57.465Z,15.60
2019-02-15T20:38:12.241Z,15.50
2019-02-15T20:43:26.723Z,15.40
2019-02-15T20:48:41.303Z,15.30
2019-02-15T20:53:56.032Z,15.30
2019-02-15T20:59:10.921Z,15.20
2019-02-15T21:04:25.716Z,15.10
2019-02-15T21:09:40.291Z,15.00
2019-02-15T21:14:54.861Z,14.90
2019-02-15T21:20:10.626Z,14.90
2019-02-15T21:25:25.049Z,14.80
2019-02-15T21:30:39.513Z,14.70
2019-02-15T21:35:54.234Z,14.60
2019-02-15T21:41:09.381Z,14.50
2019-02-15T21:46:25.465Z,14.40
2019-02-15T21:51:40.451Z,14.30
2019-02-15T21:56:55.057Z,14.30
2019-02-15T22:02:08.927Z,14.20
2019-02-15T22:07:23.975Z,14.10
2019-02-15T22:12:38.523Z,14.10
2019-02-15T22:17:53.004Z,14.00
2019-02-15T22:23:07.577Z,13.90
2019-02-15T22:28:22.919Z,13.80
2019-02-15T22:33:37.981Z,13.70
2019-02-15T22:38:52.556Z,13.70
2019-02-15T22:44:11.597Z,13.60
2019-02-15T22:49:28.006Z,13.50
2019-02-15T22:54:42.384Z,13.40
2019-02-15T23:00:00.980Z,13.40
2019-02-15T23:05:13.394Z,13.30
2019-02-15T23:10:27.554Z,13.20
2019-02-15T23:15:42.004Z,13.10
2019-02-15T23:20:56.839Z,13.00
2019-02-15T23:26:11.217Z,13.00
2019-02-15T23:31:25.674Z,12.90
2019-02-15T23:36:40.127Z,12.80
2019-02-15T23:41:54.561Z,12.70
2019-02-15T23:47:09.086Z,12.70
2019-02-15T23:52:23.614Z,12.60
2019-02-15T23:57:38.424Z,12.50
